Plant City, FL

3:12 PM EST on December 08, 2016 (GMT -0500)
Bull's Backyard | | Change Station

Elev 138 ft 28.11 °N, 82.15 °W | Updated 2 seconds ago

Mostly Cloudy
Mostly Cloudy
68.9 °F
Feels Like 68.9 °F
N
0.8
Wind Variable Wind from WSW
Gusts 2.0 mph

Today
High -- | Low -- °F
--% Chance of Precip.
Yesterday
High -- | Low -- °F
Precip. -- in
Pressure 30.12 in
Visibility 10.0 miles
Clouds Mostly Cloudy 11000 ft
Dew Point 56 °F
Humidity 64%
Rainfall in
Snow Depth Not available.
7:08 AM 5:33 PM
Waxing Gibbous, 66% visible
METAR KPCM 081955Z AUTO 35005KT 10SM BKN110 22/14 A3012 RMK AO2
Pressure 30.12 in
Visibility 10.0 miles
Clouds Mostly Cloudy 11000 ft
Dew Point 56 °F
Humidity 64%
Rainfall in
Snow Depth Not available.
7:08 AM 5:33 PM
Waxing Gibbous, 66% visible
METAR KPCM 081955Z AUTO 35005KT 10SM BKN110 22/14 A3012 RMK AO2

10-Day Weather Forecast

Almanac

Astronomy

Dec. 08, 2016 Rise Set
Actual Time
Civil Twilight
Nautical Twilight
Astronomical Twilight
Moon
Length of Visible Light
Length of Day
Tomorrow will be .
, % of the Moon is Illuminated

Today's Extremes

State Highs State Lows

Community

WunderPhotos

Upload Photos

1,956,277 photos uploaded!

WunderBlog® & News

Nearby

Air Quality

  Air Quality AQ Index Pollutant
Not available.

Snow Depth

Station Depth Elevation

Earthquake Activity

City Distance Mag. Time & Date
Minimum magnitude displayed is 2.5.

Coastal Water Temperatures

Place Temperature

Stations

Nearby Weather Stations

Station Location Temp. Windchill Dew Point Humidity Wind Precip. Elev Updated Type
                   

Watches & Warnings

There are currently no watches in effect.